sensor_id;sensor_type;location;lat;lon;timestamp;P1;durP1;ratioP1;P2;durP2;ratioP2
13975;SDS011;7062;49.792;9.946;2023-04-25T00:00:58;2.77;;;2.53;;
13975;SDS011;7062;49.792;9.946;2023-04-25T00:03:23;2.73;;;2.10;;
13975;SDS011;7062;49.792;9.946;2023-04-25T00:05:50;3.93;;;2.93;;
13975;SDS011;7062;49.792;9.946;2023-04-25T00:08:16;5.93;;;3.37;;
13975;SDS011;7062;49.792;9.946;2023-04-25T00:10:42;2.63;;;2.40;;
13975;SDS011;7062;49.792;9.946;2023-04-25T00:13:08;3.63;;;3.07;;
13975;SDS011;7062;49.792;9.946;2023-04-25T00:15:36;2.93;;;2.57;;
13975;SDS011;7062;49.792;9.946;2023-04-25T00:18:03;2.30;;;2.10;;
13975;SDS011;7062;49.792;9.946;2023-04-25T00:20:28;3.27;;;2.77;;
13975;SDS011;7062;49.792;9.946;2023-04-25T00:22:55;4.00;;;2.47;;
13975;SDS011;7062;49.792;9.946;2023-04-25T00:25:20;2.80;;;2.60;;
13975;SDS011;7062;49.792;9.946;2023-04-25T00:27:46;3.00;;;2.70;;
13975;SDS011;7062;49.792;9.946;2023-04-25T00:30:12;3.57;;;2.80;;
13975;SDS011;7062;49.792;9.946;2023-04-25T00:32:38;3.40;;;3.10;;
13975;SDS011;7062;49.792;9.946;2023-04-25T00:35:04;3.33;;;3.00;;
13975;SDS011;7062;49.792;9.946;2023-04-25T00:37:29;3.87;;;3.10;;
13975;SDS011;7062;49.792;9.946;2023-04-25T00:39:55;4.83;;;2.53;;
13975;SDS011;7062;49.792;9.946;2023-04-25T00:42:23;2.80;;;2.60;;
13975;SDS011;7062;49.792;9.946;2023-04-25T00:44:49;3.37;;;2.83;;
13975;SDS011;7062;49.792;9.946;2023-04-25T00:47:17;3.20;;;2.90;;
13975;SDS011;7062;49.792;9.946;2023-04-25T00:49:43;3.43;;;3.13;;
13975;SDS011;7062;49.792;9.946;2023-04-25T00:52:09;5.33;;;2.53;;
13975;SDS011;7062;49.792;9.946;2023-04-25T00:54:36;2.93;;;2.73;;
13975;SDS011;7062;49.792;9.946;2023-04-25T00:57:02;3.87;;;3.43;;
13975;SDS011;7062;49.792;9.946;2023-04-25T00:59:28;4.77;;;2.77;;
13975;SDS011;7062;49.792;9.946;2023-04-25T01:01:55;3.43;;;2.93;;
13975;SDS011;7062;49.792;9.946;2023-04-25T01:04:21;3.10;;;2.80;;
13975;SDS011;7062;49.792;9.946;2023-04-25T01:06:47;3.30;;;2.70;;
13975;SDS011;7062;49.792;9.946;2023-04-25T01:09:13;3.57;;;3.27;;
13975;SDS011;7062;49.792;9.946;2023-04-25T01:11:39;2.87;;;2.57;;
13975;SDS011;7062;49.792;9.946;2023-04-25T01:14:05;4.10;;;2.73;;
13975;SDS011;7062;49.792;9.946;2023-04-25T01:16:31;3.47;;;2.57;;
13975;SDS011;7062;49.792;9.946;2023-04-25T01:18:58;3.13;;;2.63;;
13975;SDS011;7062;49.792;9.946;2023-04-25T01:21:24;3.50;;;3.20;;
13975;SDS011;7062;49.792;9.946;2023-04-25T01:23:52;4.17;;;2.87;;
13975;SDS011;7062;49.792;9.946;2023-04-25T01:26:19;3.57;;;2.97;;
13975;SDS011;7062;49.792;9.946;2023-04-25T01:28:46;3.40;;;3.10;;
13975;SDS011;7062;49.792;9.946;2023-04-25T01:31:13;3.60;;;3.23;;
13975;SDS011;7062;49.792;9.946;2023-04-25T01:33:40;3.93;;;3.40;;
13975;SDS011;7062;49.792;9.946;2023-04-25T01:36:06;4.80;;;3.87;;
13975;SDS011;7062;49.792;9.946;2023-04-25T01:38:31;4.80;;;4.30;;
13975;SDS011;7062;49.792;9.946;2023-04-25T01:40:57;3.47;;;3.00;;
13975;SDS011;7062;49.792;9.946;2023-04-25T01:43:23;3.47;;;2.73;;
13975;SDS011;7062;49.792;9.946;2023-04-25T01:45:49;5.40;;;3.20;;
13975;SDS011;7062;49.792;9.946;2023-04-25T01:48:15;3.47;;;2.17;;
13975;SDS011;7062;49.792;9.946;2023-04-25T01:50:41;3.23;;;2.50;;
13975;SDS011;7062;49.792;9.946;2023-04-25T01:53:07;3.80;;;2.23;;
13975;SDS011;7062;49.792;9.946;2023-04-25T01:55:35;2.60;;;2.40;;
13975;SDS011;7062;49.792;9.946;2023-04-25T01:58:02;2.90;;;2.50;;
13975;SDS011;7062;49.792;9.946;2023-04-25T02:00:28;2.67;;;1.90;;
13975;SDS011;7062;49.792;9.946;2023-04-25T02:02:53;2.07;;;1.87;;
13975;SDS011;7062;49.792;9.946;2023-04-25T02:05:23;4.37;;;1.90;;
13975;SDS011;7062;49.792;9.946;2023-04-25T02:07:48;1.90;;;1.70;;
13975;SDS011;7062;49.792;9.946;2023-04-25T02:10:14;3.43;;;2.20;;
13975;SDS011;7062;49.792;9.946;2023-04-25T02:12:40;2.30;;;2.10;;
13975;SDS011;7062;49.792;9.946;2023-04-25T02:15:06;1.67;;;1.57;;
13975;SDS011;7062;49.792;9.946;2023-04-25T02:17:32;2.67;;;1.87;;
13975;SDS011;7062;49.792;9.946;2023-04-25T02:19:58;3.20;;;1.97;;
13975;SDS011;7062;49.792;9.946;2023-04-25T02:22:24;2.63;;;2.03;;
13975;SDS011;7062;49.792;9.946;2023-04-25T02:24:50;3.23;;;2.10;;
13975;SDS011;7062;49.792;9.946;2023-04-25T02:27:15;1.67;;;1.57;;
13975;SDS011;7062;49.792;9.946;2023-04-25T02:29:41;1.73;;;1.37;;
13975;SDS011;7062;49.792;9.946;2023-04-25T02:32:07;1.70;;;1.43;;
13975;SDS011;7062;49.792;9.946;2023-04-25T02:34:32;1.80;;;1.33;;
13975;SDS011;7062;49.792;9.946;2023-04-25T02:36:58;1.33;;;1.23;;
13975;SDS011;7062;49.792;9.946;2023-04-25T02:39:23;2.00;;;1.57;;
13975;SDS011;7062;49.792;9.946;2023-04-25T02:41:50;1.30;;;1.20;;
13975;SDS011;7062;49.792;9.946;2023-04-25T02:44:16;1.30;;;1.13;;
13975;SDS011;7062;49.792;9.946;2023-04-25T02:46:42;1.40;;;1.10;;
13975;SDS011;7062;49.792;9.946;2023-04-25T02:49:07;3.30;;;1.67;;
13975;SDS011;7062;49.792;9.946;2023-04-25T02:51:33;1.57;;;1.47;;
13975;SDS011;7062;49.792;9.946;2023-04-25T02:53:59;1.47;;;1.23;;
13975;SDS011;7062;49.792;9.946;2023-04-25T02:56:24;1.80;;;1.07;;
13975;SDS011;7062;49.792;9.946;2023-04-25T02:58:51;1.23;;;1.07;;
13975;SDS011;7062;49.792;9.946;2023-04-25T03:01:17;1.37;;;1.27;;
13975;SDS011;7062;49.792;9.946;2023-04-25T03:03:42;1.13;;;1.03;;
13975;SDS011;7062;49.792;9.946;2023-04-25T03:06:08;3.63;;;1.67;;
13975;SDS011;7062;49.792;9.946;2023-04-25T03:08:34;1.83;;;1.40;;
13975;SDS011;7062;49.792;9.946;2023-04-25T03:10:59;1.57;;;1.40;;
13975;SDS011;7062;49.792;9.946;2023-04-25T03:13:25;1.70;;;1.30;;
13975;SDS011;7062;49.792;9.946;2023-04-25T03:15:52;1.93;;;1.40;;
13975;SDS011;7062;49.792;9.946;2023-04-25T03:18:18;1.30;;;1.20;;
13975;SDS011;7062;49.792;9.946;2023-04-25T03:20:43;2.03;;;1.40;;
13975;SDS011;7062;49.792;9.946;2023-04-25T03:23:09;1.43;;;1.33;;
13975;SDS011;7062;49.792;9.946;2023-04-25T03:25:35;1.47;;;1.30;;
13975;SDS011;7062;49.792;9.946;2023-04-25T03:28:00;2.47;;;1.73;;
13975;SDS011;7062;49.792;9.946;2023-04-25T03:30:26;1.83;;;1.53;;
13975;SDS011;7062;49.792;9.946;2023-04-25T03:32:52;2.20;;;1.80;;
13975;SDS011;7062;49.792;9.946;2023-04-25T03:35:17;2.57;;;2.23;;
13975;SDS011;7062;49.792;9.946;2023-04-25T03:37:43;1.80;;;1.67;;
13975;SDS011;7062;49.792;9.946;2023-04-25T03:40:10;2.13;;;1.93;;
13975;SDS011;7062;49.792;9.946;2023-04-25T03:42:36;3.73;;;2.63;;
13975;SDS011;7062;49.792;9.946;2023-04-25T03:45:02;2.97;;;2.67;;
13975;SDS011;7062;49.792;9.946;2023-04-25T03:47:27;3.03;;;2.40;;
13975;SDS011;7062;49.792;9.946;2023-04-25T03:49:53;3.07;;;2.77;;
13975;SDS011;7062;49.792;9.946;2023-04-25T03:52:19;3.00;;;2.60;;
13975;SDS011;7062;49.792;9.946;2023-04-25T03:54:45;4.03;;;3.27;;
13975;SDS011;7062;49.792;9.946;2023-04-25T03:57:10;4.63;;;3.80;;
13975;SDS011;7062;49.792;9.946;2023-04-25T03:59:36;5.03;;;3.33;;
13975;SDS011;7062;49.792;9.946;2023-04-25T04:02:02;4.70;;;3.30;;
13975;SDS011;7062;49.792;9.946;2023-04-25T04:04:27;3.93;;;3.27;;
13975;SDS011;7062;49.792;9.946;2023-04-25T04:06:53;4.50;;;3.90;;
13975;SDS011;7062;49.792;9.946;2023-04-25T04:09:19;4.17;;;3.77;;
13975;SDS011;7062;49.792;9.946;2023-04-25T04:11:45;4.20;;;3.33;;
13975;SDS011;7062;49.792;9.946;2023-04-25T04:14:11;3.87;;;3.43;;
13975;SDS011;7062;49.792;9.946;2023-04-25T04:16:36;4.87;;;3.93;;
13975;SDS011;7062;49.792;9.946;2023-04-25T04:19:02;8.07;;;4.10;;
13975;SDS011;7062;49.792;9.946;2023-04-25T04:21:28;5.03;;;4.53;;
13975;SDS011;7062;49.792;9.946;2023-04-25T04:23:53;5.83;;;4.70;;
13975;SDS011;7062;49.792;9.946;2023-04-25T04:26:19;5.70;;;4.93;;
13975;SDS011;7062;49.792;9.946;2023-04-25T04:28:48;4.93;;;4.40;;
13975;SDS011;7062;49.792;9.946;2023-04-25T04:31:15;5.20;;;4.63;;
13975;SDS011;7062;49.792;9.946;2023-04-25T04:33:44;6.07;;;4.40;;
13975;SDS011;7062;49.792;9.946;2023-04-25T04:36:10;4.43;;;4.03;;
13975;SDS011;7062;49.792;9.946;2023-04-25T04:38:36;4.73;;;4.33;;
13975;SDS011;7062;49.792;9.946;2023-04-25T04:41:02;5.60;;;3.97;;
13975;SDS011;7062;49.792;9.946;2023-04-25T04:43:28;5.50;;;3.77;;
13975;SDS011;7062;49.792;9.946;2023-04-25T04:45:54;4.40;;;4.00;;
13975;SDS011;7062;49.792;9.946;2023-04-25T04:48:23;5.97;;;4.60;;
13975;SDS011;7062;49.792;9.946;2023-04-25T04:50:49;4.80;;;4.37;;
13975;SDS011;7062;49.792;9.946;2023-04-25T04:53:15;5.20;;;4.73;;
13975;SDS011;7062;49.792;9.946;2023-04-25T04:55:40;7.37;;;4.93;;
13975;SDS011;7062;49.792;9.946;2023-04-25T04:58:06;4.87;;;4.47;;
13975;SDS011;7062;49.792;9.946;2023-04-25T05:00:33;5.10;;;4.60;;
13975;SDS011;7062;49.792;9.946;2023-04-25T05:02:59;6.50;;;5.13;;
13975;SDS011;7062;49.792;9.946;2023-04-25T05:05:24;6.70;;;6.00;;
13975;SDS011;7062;49.792;9.946;2023-04-25T05:07:50;5.70;;;5.13;;
13975;SDS011;7062;49.792;9.946;2023-04-25T05:10:17;6.33;;;5.70;;
13975;SDS011;7062;49.792;9.946;2023-04-25T05:12:43;6.10;;;5.37;;
13975;SDS011;7062;49.792;9.946;2023-04-25T05:15:09;5.67;;;5.10;;
13975;SDS011;7062;49.792;9.946;2023-04-25T05:17:36;6.93;;;5.13;;
13975;SDS011;7062;49.792;9.946;2023-04-25T05:20:01;6.23;;;4.87;;
13975;SDS011;7062;49.792;9.946;2023-04-25T05:22:28;5.70;;;5.20;;
13975;SDS011;7062;49.792;9.946;2023-04-25T05:24:53;7.13;;;5.77;;
13975;SDS011;7062;49.792;9.946;2023-04-25T05:27:19;5.83;;;4.80;;
13975;SDS011;7062;49.792;9.946;2023-04-25T05:29:45;6.83;;;5.87;;
13975;SDS011;7062;49.792;9.946;2023-04-25T05:32:11;7.73;;;5.87;;
13975;SDS011;7062;49.792;9.946;2023-04-25T05:34:36;7.07;;;6.00;;
13975;SDS011;7062;49.792;9.946;2023-04-25T05:37:02;6.03;;;5.30;;
13975;SDS011;7062;49.792;9.946;2023-04-25T05:39:28;7.43;;;6.40;;
13975;SDS011;7062;49.792;9.946;2023-04-25T05:41:53;7.43;;;6.73;;
13975;SDS011;7062;49.792;9.946;2023-04-25T05:44:19;7.67;;;6.80;;
13975;SDS011;7062;49.792;9.946;2023-04-25T05:46:46;6.27;;;5.67;;
13975;SDS011;7062;49.792;9.946;2023-04-25T05:49:12;10.00;;;6.07;;
13975;SDS011;7062;49.792;9.946;2023-04-25T05:51:38;7.27;;;6.27;;
13975;SDS011;7062;49.792;9.946;2023-04-25T05:54:03;9.20;;;5.93;;
13975;SDS011;7062;49.792;9.946;2023-04-25T05:56:29;6.13;;;5.53;;
13975;SDS011;7062;49.792;9.946;2023-04-25T05:58:55;7.53;;;6.30;;
13975;SDS011;7062;49.792;9.946;2023-04-25T06:01:21;8.30;;;6.93;;
13975;SDS011;7062;49.792;9.946;2023-04-25T06:03:47;7.13;;;6.20;;
13975;SDS011;7062;49.792;9.946;2023-04-25T06:06:13;7.67;;;6.60;;
13975;SDS011;7062;49.792;9.946;2023-04-25T06:08:39;7.13;;;5.80;;
13975;SDS011;7062;49.792;9.946;2023-04-25T06:11:05;7.43;;;6.23;;
13975;SDS011;7062;49.792;9.946;2023-04-25T06:13:31;6.80;;;5.63;;
13975;SDS011;7062;49.792;9.946;2023-04-25T06:15:57;7.27;;;5.90;;
13975;SDS011;7062;49.792;9.946;2023-04-25T06:18:22;8.07;;;6.80;;
13975;SDS011;7062;49.792;9.946;2023-04-25T06:20:48;8.20;;;6.80;;
13975;SDS011;7062;49.792;9.946;2023-04-25T06:23:13;8.33;;;6.17;;
13975;SDS011;7062;49.792;9.946;2023-04-25T06:25:39;8.00;;;6.80;;
13975;SDS011;7062;49.792;9.946;2023-04-25T06:28:05;7.80;;;6.33;;
13975;SDS011;7062;49.792;9.946;2023-04-25T06:30:30;7.07;;;6.13;;
13975;SDS011;7062;49.792;9.946;2023-04-25T06:32:56;7.17;;;6.47;;
13975;SDS011;7062;49.792;9.946;2023-04-25T06:35:22;7.27;;;6.57;;
13975;SDS011;7062;49.792;9.946;2023-04-25T06:37:47;8.27;;;7.43;;
13975;SDS011;7062;49.792;9.946;2023-04-25T06:40:13;8.80;;;7.13;;
13975;SDS011;7062;49.792;9.946;2023-04-25T06:42:39;7.90;;;7.10;;
13975;SDS011;7062;49.792;9.946;2023-04-25T06:45:05;12.83;;;7.83;;
13975;SDS011;7062;49.792;9.946;2023-04-25T06:47:31;8.27;;;7.43;;
13975;SDS011;7062;49.792;9.946;2023-04-25T06:49:57;8.27;;;6.33;;
13975;SDS011;7062;49.792;9.946;2023-04-25T06:52:22;9.43;;;6.90;;
13975;SDS011;7062;49.792;9.946;2023-04-25T06:54:48;8.20;;;5.00;;
13975;SDS011;7062;49.792;9.946;2023-04-25T06:57:14;7.07;;;6.07;;
13975;SDS011;7062;49.792;9.946;2023-04-25T06:59:39;7.40;;;6.60;;
13975;SDS011;7062;49.792;9.946;2023-04-25T07:02:05;8.67;;;5.70;;
13975;SDS011;7062;49.792;9.946;2023-04-25T07:04:31;6.47;;;5.47;;
13975;SDS011;7062;49.792;9.946;2023-04-25T07:06:56;8.17;;;6.20;;
13975;SDS011;7062;49.792;9.946;2023-04-25T07:09:22;10.43;;;6.50;;
13975;SDS011;7062;49.792;9.946;2023-04-25T07:11:48;7.40;;;5.10;;
13975;SDS011;7062;49.792;9.946;2023-04-25T07:14:14;6.30;;;5.43;;
13975;SDS011;7062;49.792;9.946;2023-04-25T07:16:40;7.30;;;5.53;;
13975;SDS011;7062;49.792;9.946;2023-04-25T07:19:06;7.03;;;5.67;;
13975;SDS011;7062;49.792;9.946;2023-04-25T07:21:32;6.33;;;4.60;;
13975;SDS011;7062;49.792;9.946;2023-04-25T07:23:58;6.63;;;4.73;;
13975;SDS011;7062;49.792;9.946;2023-04-25T07:26:23;7.83;;;5.13;;
13975;SDS011;7062;49.792;9.946;2023-04-25T07:28:49;7.53;;;5.07;;
13975;SDS011;7062;49.792;9.946;2023-04-25T07:31:16;8.83;;;5.10;;
13975;SDS011;7062;49.792;9.946;2023-04-25T07:33:43;8.07;;;5.33;;
13975;SDS011;7062;49.792;9.946;2023-04-25T07:36:12;6.63;;;4.87;;
13975;SDS011;7062;49.792;9.946;2023-04-25T07:38:40;7.77;;;5.33;;
13975;SDS011;7062;49.792;9.946;2023-04-25T07:41:05;11.50;;;4.60;;
13975;SDS011;7062;49.792;9.946;2023-04-25T07:43:31;4.67;;;4.13;;
13975;SDS011;7062;49.792;9.946;2023-04-25T07:45:57;5.70;;;4.10;;
13975;SDS011;7062;49.792;9.946;2023-04-25T07:48:22;8.27;;;4.37;;
13975;SDS011;7062;49.792;9.946;2023-04-25T07:50:48;8.53;;;3.80;;
13975;SDS011;7062;49.792;9.946;2023-04-25T07:53:14;8.97;;;4.60;;
13975;SDS011;7062;49.792;9.946;2023-04-25T07:55:40;11.97;;;4.97;;
13975;SDS011;7062;49.792;9.946;2023-04-25T07:58:06;5.00;;;3.50;;
13975;SDS011;7062;49.792;9.946;2023-04-25T08:00:32;5.07;;;3.83;;
13975;SDS011;7062;49.792;9.946;2023-04-25T08:02:58;6.70;;;3.97;;
13975;SDS011;7062;49.792;9.946;2023-04-25T08:05:23;6.27;;;3.50;;
13975;SDS011;7062;49.792;9.946;2023-04-25T08:07:49;6.77;;;3.43;;
13975;SDS011;7062;49.792;9.946;2023-04-25T08:10:15;3.73;;;2.97;;
13975;SDS011;7062;49.792;9.946;2023-04-25T08:12:40;4.33;;;2.50;;
13975;SDS011;7062;49.792;9.946;2023-04-25T08:15:06;6.10;;;2.10;;
13975;SDS011;7062;49.792;9.946;2023-04-25T08:17:32;3.93;;;1.97;;
13975;SDS011;7062;49.792;9.946;2023-04-25T08:19:58;5.07;;;1.73;;
13975;SDS011;7062;49.792;9.946;2023-04-25T08:22:24;3.80;;;1.70;;
13975;SDS011;7062;49.792;9.946;2023-04-25T08:24:49;3.10;;;1.50;;
13975;SDS011;7062;49.792;9.946;2023-04-25T08:27:15;6.20;;;2.03;;
13975;SDS011;7062;49.792;9.946;2023-04-25T08:29:41;3.17;;;1.50;;
13975;SDS011;7062;49.792;9.946;2023-04-25T08:32:07;1.83;;;1.20;;
13975;SDS011;7062;49.792;9.946;2023-04-25T08:34:32;1.77;;;1.13;;
13975;SDS011;7062;49.792;9.946;2023-04-25T08:36:58;1.83;;;1.50;;
13975;SDS011;7062;49.792;9.946;2023-04-25T08:39:24;3.17;;;1.67;;
13975;SDS011;7062;49.792;9.946;2023-04-25T08:41:49;1.83;;;1.30;;
13975;SDS011;7062;49.792;9.946;2023-04-25T08:44:15;2.37;;;1.30;;
13975;SDS011;7062;49.792;9.946;2023-04-25T08:46:41;1.63;;;1.27;;
13975;SDS011;7062;49.792;9.946;2023-04-25T08:49:11;2.00;;;1.47;;
13975;SDS011;7062;49.792;9.946;2023-04-25T08:51:41;1.57;;;1.33;;
13975;SDS011;7062;49.792;9.946;2023-04-25T08:54:12;2.43;;;1.40;;
13975;SDS011;7062;49.792;9.946;2023-04-25T08:56:39;2.90;;;1.37;;
13975;SDS011;7062;49.792;9.946;2023-04-25T08:59:08;1.57;;;1.20;;
13975;SDS011;7062;49.792;9.946;2023-04-25T09:01:35;2.40;;;1.47;;
13975;SDS011;7062;49.792;9.946;2023-04-25T09:04:01;2.80;;;1.47;;
13975;SDS011;7062;49.792;9.946;2023-04-25T09:06:28;1.97;;;1.50;;
13975;SDS011;7062;49.792;9.946;2023-04-25T09:08:55;2.17;;;1.40;;
13975;SDS011;7062;49.792;9.946;2023-04-25T09:11:30;2.70;;;1.20;;
13975;SDS011;7062;49.792;9.946;2023-04-25T09:14:15;2.53;;;1.37;;
13975;SDS011;7062;49.792;9.946;2023-04-25T09:19:36;2.43;;;1.20;;
13975;SDS011;7062;49.792;9.946;2023-04-25T09:22:05;1.90;;;1.50;;
13975;SDS011;7062;49.792;9.946;2023-04-25T09:24:44;2.20;;;1.20;;
13975;SDS011;7062;49.792;9.946;2023-04-25T09:27:19;2.30;;;1.20;;
13975;SDS011;7062;49.792;9.946;2023-04-25T09:29:47;1.87;;;1.13;;
13975;SDS011;7062;49.792;9.946;2023-04-25T09:32:21;2.30;;;1.53;;
13975;SDS011;7062;49.792;9.946;2023-04-25T09:34:49;2.50;;;1.43;;
13975;SDS011;7062;49.792;9.946;2023-04-25T09:39:48;1.93;;;1.30;;
13975;SDS011;7062;49.792;9.946;2023-04-25T09:42:15;2.73;;;1.57;;
13975;SDS011;7062;49.792;9.946;2023-04-25T09:44:42;2.17;;;1.17;;
13975;SDS011;7062;49.792;9.946;2023-04-25T09:47:11;1.87;;;1.07;;
13975;SDS011;7062;49.792;9.946;2023-04-25T09:49:39;2.50;;;1.40;;
13975;SDS011;7062;49.792;9.946;2023-04-25T09:52:07;2.30;;;1.33;;
13975;SDS011;7062;49.792;9.946;2023-04-25T09:54:33;4.10;;;1.63;;
13975;SDS011;7062;49.792;9.946;2023-04-25T09:57:00;3.07;;;1.17;;
13975;SDS011;7062;49.792;9.946;2023-04-25T09:59:36;2.57;;;1.40;;
13975;SDS011;7062;49.792;9.946;2023-04-25T10:02:05;2.60;;;1.20;;
13975;SDS011;7062;49.792;9.946;2023-04-25T10:04:32;3.20;;;2.13;;
13975;SDS011;7062;49.792;9.946;2023-04-25T10:07:00;1.87;;;1.63;;
13975;SDS011;7062;49.792;9.946;2023-04-25T10:09:28;2.37;;;1.60;;
13975;SDS011;7062;49.792;9.946;2023-04-25T10:11:58;1.57;;;1.30;;
13975;SDS011;7062;49.792;9.946;2023-04-25T10:14:25;4.63;;;1.63;;
13975;SDS011;7062;49.792;9.946;2023-04-25T10:16:51;2.33;;;1.80;;
13975;SDS011;7062;49.792;9.946;2023-04-25T10:19:21;2.93;;;1.63;;
13975;SDS011;7062;49.792;9.946;2023-04-25T10:21:51;1.70;;;1.43;;
13975;SDS011;7062;49.792;9.946;2023-04-25T10:24:20;1.97;;;1.40;;
13975;SDS011;7062;49.792;9.946;2023-04-25T10:26:47;2.93;;;1.57;;
13975;SDS011;7062;49.792;9.946;2023-04-25T10:29:15;2.30;;;1.47;;
13975;SDS011;7062;49.792;9.946;2023-04-25T10:31:49;2.03;;;1.80;;
13975;SDS011;7062;49.792;9.946;2023-04-25T10:34:18;4.17;;;1.67;;
13975;SDS011;7062;49.792;9.946;2023-04-25T10:36:51;3.80;;;1.30;;
13975;SDS011;7062;49.792;9.946;2023-04-25T10:39:21;2.83;;;1.37;;
13975;SDS011;7062;49.792;9.946;2023-04-25T10:41:57;1.63;;;1.00;;
13975;SDS011;7062;49.792;9.946;2023-04-25T10:44:27;2.40;;;1.47;;
13975;SDS011;7062;49.792;9.946;2023-04-25T10:46:57;2.13;;;1.47;;
13975;SDS011;7062;49.792;9.946;2023-04-25T10:49:28;2.20;;;1.33;;
13975;SDS011;7062;49.792;9.946;2023-04-25T10:54:51;2.30;;;1.20;;
13975;SDS011;7062;49.792;9.946;2023-04-25T10:57:25;2.13;;;1.27;;
13975;SDS011;7062;49.792;9.946;2023-04-25T11:00:14;1.40;;;1.13;;
13975;SDS011;7062;49.792;9.946;2023-04-25T11:02:53;2.10;;;1.30;;
13975;SDS011;7062;49.792;9.946;2023-04-25T11:05:29;2.50;;;1.30;;
13975;SDS011;7062;49.792;9.946;2023-04-25T11:07:58;1.57;;;1.30;;
13975;SDS011;7062;49.792;9.946;2023-04-25T11:12:54;3.07;;;1.50;;
13975;SDS011;7062;49.792;9.946;2023-04-25T11:15:20;2.23;;;1.60;;
13975;SDS011;7062;49.792;9.946;2023-04-25T11:17:46;3.23;;;1.70;;
13975;SDS011;7062;49.792;9.946;2023-04-25T11:20:12;2.43;;;1.73;;
13975;SDS011;7062;49.792;9.946;2023-04-25T11:22:40;2.77;;;1.70;;
13975;SDS011;7062;49.792;9.946;2023-04-25T11:25:06;2.13;;;1.33;;
13975;SDS011;7062;49.792;9.946;2023-04-25T11:27:33;5.20;;;1.43;;
13975;SDS011;7062;49.792;9.946;2023-04-25T11:30:09;1.40;;;1.30;;
13975;SDS011;7062;49.792;9.946;2023-04-25T11:32:39;1.77;;;1.40;;
13975;SDS011;7062;49.792;9.946;2023-04-25T11:35:06;2.53;;;1.50;;
13975;SDS011;7062;49.792;9.946;2023-04-25T11:37:32;2.80;;;1.50;;
13975;SDS011;7062;49.792;9.946;2023-04-25T11:39:59;3.93;;;1.30;;
13975;SDS011;7062;49.792;9.946;2023-04-25T11:42:25;1.50;;;1.30;;
13975;SDS011;7062;49.792;9.946;2023-04-25T11:44:51;3.00;;;1.70;;
13975;SDS011;7062;49.792;9.946;2023-04-25T11:47:17;4.10;;;1.60;;
13975;SDS011;7062;49.792;9.946;2023-04-25T11:49:43;2.77;;;2.07;;
13975;SDS011;7062;49.792;9.946;2023-04-25T11:52:08;4.40;;;2.20;;
13975;SDS011;7062;49.792;9.946;2023-04-25T11:54:35;2.17;;;1.33;;
13975;SDS011;7062;49.792;9.946;2023-04-25T11:57:01;3.77;;;1.57;;
13975;SDS011;7062;49.792;9.946;2023-04-25T11:59:28;2.97;;;1.80;;
13975;SDS011;7062;49.792;9.946;2023-04-25T12:01:54;2.27;;;1.37;;
13975;SDS011;7062;49.792;9.946;2023-04-25T12:04:20;2.50;;;1.30;;
13975;SDS011;7062;49.792;9.946;2023-04-25T12:06:48;5.60;;;1.93;;
13975;SDS011;7062;49.792;9.946;2023-04-25T12:09:18;3.30;;;1.77;;
13975;SDS011;7062;49.792;9.946;2023-04-25T12:11:52;2.23;;;1.50;;
13975;SDS011;7062;49.792;9.946;2023-04-25T12:14:23;2.90;;;1.63;;
13975;SDS011;7062;49.792;9.946;2023-04-25T12:16:52;2.87;;;1.50;;
13975;SDS011;7062;49.792;9.946;2023-04-25T12:19:20;2.77;;;1.17;;
13975;SDS011;7062;49.792;9.946;2023-04-25T12:21:46;3.83;;;2.20;;
13975;SDS011;7062;49.792;9.946;2023-04-25T12:24:16;4.07;;;1.40;;
13975;SDS011;7062;49.792;9.946;2023-04-25T12:26:57;4.70;;;2.07;;
13975;SDS011;7062;49.792;9.946;2023-04-25T12:29:28;2.33;;;1.87;;
13975;SDS011;7062;49.792;9.946;2023-04-25T12:31:55;2.37;;;1.67;;
13975;SDS011;7062;49.792;9.946;2023-04-25T12:34:21;3.67;;;2.00;;
13975;SDS011;7062;49.792;9.946;2023-04-25T12:36:49;3.83;;;2.00;;
13975;SDS011;7062;49.792;9.946;2023-04-25T12:39:16;3.20;;;2.60;;
13975;SDS011;7062;49.792;9.946;2023-04-25T12:41:44;3.53;;;2.03;;
13975;SDS011;7062;49.792;9.946;2023-04-25T12:44:10;2.60;;;2.20;;
13975;SDS011;7062;49.792;9.946;2023-04-25T12:46:36;3.17;;;1.90;;
13975;SDS011;7062;49.792;9.946;2023-04-25T12:49:03;3.50;;;2.27;;
13975;SDS011;7062;49.792;9.946;2023-04-25T12:51:29;4.37;;;2.47;;
13975;SDS011;7062;49.792;9.946;2023-04-25T12:53:54;4.47;;;1.90;;
13975;SDS011;7062;49.792;9.946;2023-04-25T12:56:20;3.40;;;2.60;;
13975;SDS011;7062;49.792;9.946;2023-04-25T12:58:46;4.30;;;2.07;;
13975;SDS011;7062;49.792;9.946;2023-04-25T13:01:13;3.57;;;2.37;;
13975;SDS011;7062;49.792;9.946;2023-04-25T13:03:39;4.97;;;2.77;;
13975;SDS011;7062;49.792;9.946;2023-04-25T13:06:06;2.50;;;2.20;;
13975;SDS011;7062;49.792;9.946;2023-04-25T13:08:32;3.63;;;2.43;;
13975;SDS011;7062;49.792;9.946;2023-04-25T13:10:58;4.73;;;2.77;;
13975;SDS011;7062;49.792;9.946;2023-04-25T13:13:23;3.07;;;2.07;;
13975;SDS011;7062;49.792;9.946;2023-04-25T13:15:49;5.73;;;2.67;;
13975;SDS011;7062;49.792;9.946;2023-04-25T13:18:15;5.87;;;2.90;;
13975;SDS011;7062;49.792;9.946;2023-04-25T13:20:40;4.70;;;2.73;;
13975;SDS011;7062;49.792;9.946;2023-04-25T13:23:06;2.90;;;2.37;;
13975;SDS011;7062;49.792;9.946;2023-04-25T13:25:32;6.33;;;2.67;;
13975;SDS011;7062;49.792;9.946;2023-04-25T13:27:57;4.33;;;3.13;;
13975;SDS011;7062;49.792;9.946;2023-04-25T13:30:23;4.83;;;2.73;;
13975;SDS011;7062;49.792;9.946;2023-04-25T13:32:49;4.63;;;2.50;;
13975;SDS011;7062;49.792;9.946;2023-04-25T13:35:14;4.97;;;3.33;;
13975;SDS011;7062;49.792;9.946;2023-04-25T13:37:41;5.10;;;2.60;;
13975;SDS011;7062;49.792;9.946;2023-04-25T13:40:08;2.97;;;2.67;;
13975;SDS011;7062;49.792;9.946;2023-04-25T13:42:39;4.20;;;2.77;;
13975;SDS011;7062;49.792;9.946;2023-04-25T13:45:06;5.67;;;3.10;;
13975;SDS011;7062;49.792;9.946;2023-04-25T13:47:32;4.33;;;2.80;;
13975;SDS011;7062;49.792;9.946;2023-04-25T13:49:59;3.43;;;2.60;;
13975;SDS011;7062;49.792;9.946;2023-04-25T13:52:25;5.13;;;2.70;;
13975;SDS011;7062;49.792;9.946;2023-04-25T13:54:51;4.37;;;2.83;;
13975;SDS011;7062;49.792;9.946;2023-04-25T13:57:17;3.67;;;2.40;;
13975;SDS011;7062;49.792;9.946;2023-04-25T13:59:43;3.53;;;2.57;;
13975;SDS011;7062;49.792;9.946;2023-04-25T14:02:09;3.20;;;2.57;;
13975;SDS011;7062;49.792;9.946;2023-04-25T14:04:34;3.33;;;2.00;;
13975;SDS011;7062;49.792;9.946;2023-04-25T14:07:00;3.80;;;2.30;;
13975;SDS011;7062;49.792;9.946;2023-04-25T14:09:27;4.07;;;2.13;;
13975;SDS011;7062;49.792;9.946;2023-04-25T14:11:53;6.57;;;2.20;;
13975;SDS011;7062;49.792;9.946;2023-04-25T14:14:20;3.07;;;1.77;;
13975;SDS011;7062;49.792;9.946;2023-04-25T14:16:46;1.77;;;1.43;;
13975;SDS011;7062;49.792;9.946;2023-04-25T14:19:13;3.33;;;1.40;;
13975;SDS011;7062;49.792;9.946;2023-04-25T14:21:39;4.30;;;1.73;;
13975;SDS011;7062;49.792;9.946;2023-04-25T14:24:05;2.40;;;1.50;;
13975;SDS011;7062;49.792;9.946;2023-04-25T14:26:32;3.10;;;1.50;;
13975;SDS011;7062;49.792;9.946;2023-04-25T14:28:58;5.07;;;1.90;;
13975;SDS011;7062;49.792;9.946;2023-04-25T14:31:24;2.87;;;1.80;;
13975;SDS011;7062;49.792;9.946;2023-04-25T14:33:50;2.77;;;1.70;;
13975;SDS011;7062;49.792;9.946;2023-04-25T14:36:15;4.93;;;1.70;;
13975;SDS011;7062;49.792;9.946;2023-04-25T14:38:41;5.67;;;2.00;;
13975;SDS011;7062;49.792;9.946;2023-04-25T14:41:07;3.70;;;2.03;;
13975;SDS011;7062;49.792;9.946;2023-04-25T14:43:32;4.00;;;1.37;;
13975;SDS011;7062;49.792;9.946;2023-04-25T14:45:58;2.27;;;1.60;;
13975;SDS011;7062;49.792;9.946;2023-04-25T14:48:24;1.40;;;1.10;;
13975;SDS011;7062;49.792;9.946;2023-04-25T14:50:50;3.17;;;1.70;;
13975;SDS011;7062;49.792;9.946;2023-04-25T14:53:15;4.47;;;1.80;;
13975;SDS011;7062;49.792;9.946;2023-04-25T14:55:41;3.77;;;1.43;;
13975;SDS011;7062;49.792;9.946;2023-04-25T14:58:07;5.57;;;1.60;;
13975;SDS011;7062;49.792;9.946;2023-04-25T15:00:32;3.83;;;1.70;;
13975;SDS011;7062;49.792;9.946;2023-04-25T15:02:58;5.00;;;1.93;;
13975;SDS011;7062;49.792;9.946;2023-04-25T15:05:24;4.63;;;1.80;;
13975;SDS011;7062;49.792;9.946;2023-04-25T15:07:50;3.87;;;1.40;;